Time;durP1;ratioP1;P1;durP2;ratioP2;P2;SDS_P1;SDS_P2;PMS_P1;PMS_P2;Temp;Humidity;BMP_temperature;BMP_pressure;BME280_temperature;BME280_humidity;BME280_pressure;Samples;Min_cycle;Max_cycle;Signal;HPM_P1;HPM_P2
2020/12/04 00:01:36;;;;;;;66.33;23.12;;;;;;;-0.93;100.00;100094.16;1705127;84;21582;-71
2020/12/04 00:04:04;;;;;;;70.85;23.50;;;;;;;-0.94;100.00;100093.87;1705065;84;21055;-71
2020/12/04 00:06:36;;;;;;;71.10;24.55;;;;;;;-0.93;100.00;100092.30;1684952;84;21119;-71
2020/12/04 00:09:05;;;;;;;66.65;23.05;;;;;;;-0.89;100.00;100091.31;1705288;84;21034;-71
2020/12/04 00:11:35;;;;;;;68.95;23.22;;;;;;;-0.90;100.00;100093.71;1709959;80;21210;-71
2020/12/04 00:14:03;;;;;;;76.37;22.52;;;;;;;-0.92;100.00;100097.16;1749797;80;21476;-71
2020/12/04 00:16:31;;;;;;;66.05;22.65;;;;;;;-0.94;100.00;100101.43;1750023;82;21465;-72
2020/12/04 00:18:59;;;;;;;67.15;22.20;;;;;;;-0.94;100.00;100100.61;1749110;82;21055;-73
2020/12/04 00:21:27;;;;;;;65.92;22.17;;;;;;;-0.94;100.00;100095.22;1750665;81;20941;-72
2020/12/04 00:23:54;;;;;;;66.82;23.60;;;;;;;-0.94;100.00;100090.65;1750633;81;22064;-74
2020/12/04 00:26:23;;;;;;;67.22;22.52;;;;;;;-0.92;100.00;100095.81;1749175;82;20953;-75
2020/12/04 00:28:50;;;;;;;59.27;19.80;;;;;;;-0.93;100.00;100099.03;1749475;80;21132;-74
2020/12/04 00:31:18;;;;;;;63.35;22.32;;;;;;;-0.94;100.00;100101.43;1749679;82;21009;-74
2020/12/04 00:33:46;;;;;;;65.25;21.60;;;;;;;-0.92;100.00;100104.72;1750076;82;21148;-74
2020/12/04 00:36:14;;;;;;;63.58;22.13;;;;;;;-0.89;100.00;100100.75;1750734;80;21453;-74
2020/12/04 00:38:41;;;;;;;62.85;22.02;;;;;;;-0.90;100.00;100097.23;1750751;82;21483;-73
2020/12/04 00:41:09;;;;;;;68.20;22.32;;;;;;;-0.91;100.00;100102.33;1750665;82;21076;-75
2020/12/04 00:43:37;;;;;;;59.45;22.13;;;;;;;-0.90;100.00;100095.06;1749922;82;20945;-75
2020/12/04 00:46:05;;;;;;;57.35;19.55;;;;;;;-0.88;100.00;100091.09;1749130;82;21031;-80
2020/12/04 00:48:33;;;;;;;57.27;18.27;;;;;;;-0.86;100.00;100094.37;1749154;81;21386;-80
2020/12/04 00:51:01;;;;;;;65.32;21.27;;;;;;;-0.87;100.00;100088.69;1749052;81;21076;-80
2020/12/04 00:53:29;;;;;;;55.88;20.32;;;;;;;-0.88;100.00;100097.83;1749050;80;20998;-80
2020/12/04 00:55:57;;;;;;;65.42;21.17;;;;;;;-0.90;100.00;100086.45;1749106;80;21009;-79
2020/12/04 00:58:25;;;;;;;67.25;23.27;;;;;;;-0.91;100.00;100091.54;1749109;82;21583;-78
2020/12/04 01:00:54;;;;;;;51.75;19.67;;;;;;;-0.93;100.00;100088.25;1749125;82;22127;-79
2020/12/04 01:03:21;;;;;;;62.30;21.45;;;;;;;-0.92;100.00;100083.16;1749026;82;20961;-76
2020/12/04 01:05:49;;;;;;;57.53;19.02;;;;;;;-0.89;100.00;100094.01;1749095;82;21547;-75
2020/12/04 01:08:16;;;;;;;55.28;20.40;;;;;;;-0.91;100.00;100094.23;1749059;81;21044;-75
2020/12/04 01:10:44;;;;;;;61.15;20.32;;;;;;;-0.91;100.00;100086.67;1749200;82;20950;-75
2020/12/04 01:13:14;;;;;;;58.23;20.23;;;;;;;-0.92;100.00;100089.07;1748662;82;21399;-75
2020/12/04 01:15:41;;;;;;;56.85;20.52;;;;;;;-0.93;100.00;100090.95;1749010;82;21088;-75
2020/12/04 01:18:09;;;;;;;59.58;20.75;;;;;;;-0.93;100.00;100088.25;1749099;82;20989;-74
2020/12/04 01:20:37;;;;;;;51.80;19.37;;;;;;;-0.94;100.00;100085.26;1749057;82;21156;-74
2020/12/04 01:23:04;;;;;;;59.88;21.07;;;;;;;-0.94;100.00;100077.17;1753261;81;21534;-74
2020/12/04 01:25:32;;;;;;;50.30;18.62;;;;;;;-0.92;100.00;100065.64;1758176;81;21196;-75
2020/12/04 01:28:00;;;;;;;54.08;19.00;;;;;;;-0.94;100.00;100062.34;1758142;81;21507;-74
2020/12/04 01:30:29;;;;;;;55.38;20.45;;;;;;;-0.95;100.00;100055.84;1758193;81;20997;-76
2020/12/04 01:32:56;;;;;;;54.13;20.90;;;;;;;-0.97;100.00;100065.50;1758140;81;21016;-77
2020/12/04 01:35:24;;;;;;;53.45;19.82;;;;;;;-0.97;100.00;100066.02;1758198;81;21143;-77
2020/12/04 01:37:51;;;;;;;44.75;17.45;;;;;;;-0.97;100.00;100058.76;1758158;81;21826;-78
2020/12/04 01:40:21;;;;;;;64.37;19.07;;;;;;;-0.95;100.00;100052.62;1758128;81;21595;-74
2020/12/04 01:42:48;;;;;;;52.40;20.27;;;;;;;-0.94;100.00;100045.36;1758124;81;21024;-73
2020/12/04 01:45:16;;;;;;;51.42;20.30;;;;;;;-0.96;100.00;100045.58;1758107;81;20989;-72
2020/12/04 01:47:44;;;;;;;53.33;19.35;;;;;;;-0.96;100.00;100050.97;1758174;81;21059;-72
2020/12/04 01:50:12;;;;;;;50.78;18.98;;;;;;;-0.95;100.00;100058.01;1758151;81;21210;-72
2020/12/04 01:52:39;;;;;;;56.75;20.57;;;;;;;-0.93;100.00;100050.52;1758114;81;20965;-73
2020/12/04 01:55:07;;;;;;;52.17;17.17;;;;;;;-0.92;100.00;100053.52;1758157;81;21565;-75
2020/12/04 01:57:35;;;;;;;54.73;21.15;;;;;;;-0.92;100.00;100054.86;1758161;80;20929;-74
2020/12/04 02:00:04;;;;;;;57.38;19.77;;;;;;;-0.90;100.00;100051.94;1732743;81;21083;-74
2020/12/04 02:02:33;;;;;;;65.65;19.57;;;;;;;-0.92;100.00;100053.52;1757247;81;21374;-75
2020/12/04 02:05:01;;;;;;;58.98;20.35;;;;;;;-0.93;100.00;100045.13;1758082;81;21094;-75
2020/12/04 02:07:52;;;;;;;59.77;20.70;;;;;;;-0.91;100.00;100046.25;1758233;81;21559;-75
2020/12/04 02:10:29;;;;;;;52.93;19.40;;;;;;;-0.88;100.00;100044.44;1758116;81;20969;-75
2020/12/04 02:12:57;;;;;;;50.35;19.17;;;;;;;-0.90;100.00;100039.28;1754304;81;21610;-75
2020/12/04 02:15:25;;;;;;;59.70;21.07;;;;;;;-0.91;100.00;100043.02;1758136;81;22355;-75
2020/12/04 02:17:56;;;;;;;58.25;18.77;;;;;;;-0.89;100.00;100046.31;1758093;81;21076;-76
2020/12/04 02:20:24;;;;;;;53.25;20.02;;;;;;;-0.88;100.00;100045.27;1758192;81;20941;-75
2020/12/04 02:22:52;;;;;;;59.88;20.52;;;;;;;-0.90;100.00;100046.02;1757973;81;21479;-75
2020/12/04 02:25:19;;;;;;;43.08;17.77;;;;;;;-0.90;100.00;100050.06;1758122;81;21164;-74
2020/12/04 02:27:47;;;;;;;52.13;18.60;;;;;;;-0.84;100.00;100045.62;1758141;81;21421;-77
2020/12/04 02:30:29;;;;;;;52.23;19.77;;;;;;;-0.82;100.00;100050.27;1758026;81;21169;-77
2020/12/04 02:32:58;;;;;;;51.85;18.73;;;;;;;-0.86;100.00;100040.47;1755860;81;20992;-77
2020/12/04 02:35:26;;;;;;;49.23;18.17;;;;;;;-0.89;100.00;100040.92;1758088;81;21147;-78
2020/12/04 02:37:53;;;;;;;47.43;18.50;;;;;;;-0.89;100.00;100044.97;1758146;81;20922;-75
2020/12/04 02:40:21;;;;;;;87.60;19.70;;;;;;;-0.90;100.00;100043.32;1758116;81;21488;-76
2020/12/04 02:42:49;;;;;;;43.55;17.37;;;;;;;-0.93;100.00;100045.13;1758346;81;20992;-78
2020/12/04 02:45:17;;;;;;;55.52;20.17;;;;;;;-0.93;100.00;100044.30;1758846;81;21582;-74
2020/12/04 02:47:44;;;;;;;56.35;20.27;;;;;;;-0.91;100.00;100046.25;1759501;81;22052;-73
2020/12/04 02:50:12;;;;;;;54.42;19.05;;;;;;;-0.90;100.00;100048.71;1758828;81;21054;-73
2020/12/04 02:52:40;;;;;;;51.30;18.02;;;;;;;-0.89;100.00;100052.23;1759729;81;21478;-73
2020/12/04 02:55:07;;;;;;;47.38;17.10;;;;;;;-0.89;100.00;100049.02;1759598;81;21970;-73
2020/12/04 02:57:35;;;;;;;50.33;18.70;;;;;;;-0.89;100.00;100041.45;1759729;81;20941;-73
2020/12/04 03:00:04;;;;;;;54.95;18.23;;;;;;;-0.89;100.00;100040.10;1758675;80;21491;-74
2020/12/04 03:02:31;;;;;;;44.33;18.12;;;;;;;-0.87;100.00;100038.83;1758161;81;21503;-73
2020/12/04 03:04:59;;;;;;;48.87;19.23;;;;;;;-0.87;100.00;100040.17;1758110;81;21843;-74
2020/12/04 03:07:26;;;;;;;48.05;18.32;;;;;;;-0.87;100.00;100050.95;1758024;81;21794;-74
2020/12/04 03:09:54;;;;;;;51.48;19.55;;;;;;;-0.87;100.00;100051.48;1758111;81;20929;-74
2020/12/04 03:12:22;;;;;;;50.12;19.00;;;;;;;-0.86;100.00;100050.42;1758075;81;21506;-74
2020/12/04 03:14:50;;;;;;;52.33;19.05;;;;;;;-0.84;100.00;100047.80;1758145;81;21075;-74
2020/12/04 03:17:17;;;;;;;56.63;19.65;;;;;;;-0.85;100.00;100042.11;1758070;81;21250;-73
2020/12/04 03:19:45;;;;;;;55.45;20.00;;;;;;;-0.86;100.00;100047.20;1758045;81;20917;-73
2020/12/04 03:22:13;;;;;;;46.50;17.65;;;;;;;-0.86;100.00;100047.20;1758066;81;20953;-76
2020/12/04 03:24:40;;;;;;;51.53;19.60;;;;;;;-0.84;100.00;100045.62;1721131;82;21088;-77
2020/12/04 03:27:08;;;;;;;51.63;16.70;;;;;;;-0.85;100.00;100044.80;1749008;80;21555;-77
2020/12/04 03:29:36;;;;;;;56.15;19.42;;;;;;;-0.86;100.00;100040.47;1749220;80;21380;-74
2020/12/04 03:32:04;;;;;;;56.35;19.60;;;;;;;-0.87;100.00;100038.83;1749924;82;21020;-74
2020/12/04 03:34:31;;;;;;;47.83;18.07;;;;;;;-0.85;100.00;100035.38;1750589;81;20942;-73
2020/12/04 03:36:59;;;;;;;50.23;18.60;;;;;;;-0.86;100.00;100038.30;1749529;82;20993;-73
2020/12/04 03:39:27;;;;;;;53.40;19.10;;;;;;;-0.85;100.00;100034.02;1749156;82;21124;-74
2020/12/04 03:41:55;;;;;;;59.00;21.82;;;;;;;-0.84;100.00;100027.58;1749281;82;21279;-74
2020/12/04 03:44:23;;;;;;;48.33;18.48;;;;;;;-0.83;100.00;100024.36;1750669;81;20941;-74
2020/12/04 03:46:50;;;;;;;50.00;19.10;;;;;;;-0.83;100.00;100027.05;1750768;82;20933;-75
2020/12/04 03:49:19;;;;;;;48.65;17.85;;;;;;;-0.83;100.00;100021.14;1750725;81;21143;-74
2020/12/04 03:51:47;;;;;;;53.98;19.45;;;;;;;-0.79;100.00;100021.50;1750773;80;21095;-74
2020/12/04 03:54:14;;;;;;;50.38;20.05;;;;;;;-0.81;100.00;100030.34;1750858;82;22032;-74
2020/12/04 03:56:42;;;;;;;61.48;21.62;;;;;;;-0.81;100.00;100027.13;1750659;82;20921;-75
2020/12/04 03:59:09;;;;;;;53.78;20.50;;;;;;;-0.81;100.00;100019.03;1750705;82;20973;-76
2020/12/04 04:01:39;;;;;;;50.88;18.55;;;;;;;-0.77;100.00;100022.92;1750735;82;20992;-75
2020/12/04 04:04:08;;;;;;;51.75;19.85;;;;;;;-0.77;100.00;100024.27;1750758;82;21139;-73
2020/12/04 04:06:35;;;;;;;50.17;20.05;;;;;;;-0.75;100.00;100026.73;1750753;82;21138;-74
2020/12/04 04:09:04;;;;;;;54.85;20.72;;;;;;;-0.75;100.00;100025.38;1750713;82;20949;-75
2020/12/04 04:11:32;;;;;;;59.27;20.43;;;;;;;-0.76;100.00;100023.21;1750705;82;20949;-78
2020/12/04 04:13:59;;;;;;;58.42;21.17;;;;;;;-0.76;100.00;100025.91;1749659;80;21107;-78
2020/12/04 04:16:27;;;;;;;58.58;20.97;;;;;;;-0.77;100.00;100024.27;1750558;82;21110;-80
2020/12/04 04:18:54;;;;;;;55.30;20.08;;;;;;;-0.76;100.00;100024.56;1749190;81;21209;-83
2020/12/04 04:21:22;;;;;;;54.55;19.75;;;;;;;-0.75;100.00;100035.64;1749304;82;20965;-78
2020/12/04 04:23:50;;;;;;;52.38;19.37;;;;;;;-0.74;100.00;100024.33;1756070;81;21043;-78
2020/12/04 04:26:18;;;;;;;60.40;22.22;;;;;;;-0.73;100.00;100029.49;1767622;80;21116;-79
2020/12/04 04:28:46;;;;;;;53.58;18.37;;;;;;;-0.73;100.00;100020.59;1767768;81;21579;-76
2020/12/04 04:31:14;;;;;;;57.20;18.87;;;;;;;-0.74;100.00;100021.11;1767706;81;21496;-75
2020/12/04 04:33:41;;;;;;;53.87;18.95;;;;;;;-0.75;100.00;100028.91;1767657;81;21500;-74
2020/12/04 04:36:09;;;;;;;51.63;17.45;;;;;;;-0.72;100.00;100039.75;1767513;81;21151;-74
2020/12/04 04:38:38;;;;;;;60.75;19.60;;;;;;;-0.71;100.00;100034.13;1767200;81;21115;-74
2020/12/04 04:41:06;;;;;;;57.67;20.17;;;;;;;-0.70;100.00;100025.52;1767656;81;21021;-74
2020/12/04 04:43:33;;;;;;;59.27;19.30;;;;;;;-0.71;100.00;100024.69;1752635;81;21264;-74
2020/12/04 04:46:18;;;;;;;62.00;21.73;;;;;;;-0.69;100.00;100033.37;1767598;81;20902;-73
2020/12/04 04:48:54;;;;;;;57.83;19.75;;;;;;;-0.69;100.00;100023.94;1767697;81;21025;-74
2020/12/04 04:54:00;;;;;;;48.35;19.00;;;;;;;-0.65;100.00;100011.34;1873932;76;22700;-75
2020/12/04 04:56:29;;;;;;;59.98;18.92;;;;;;;-0.69;100.00;100015.84;1841876;77;20881;-76
2020/12/04 04:58:57;;;;;;;54.75;19.37;;;;;;;-0.68;100.00;100028.80;1842912;78;21320;-87
2020/12/04 05:01:25;;;;;;;56.33;20.62;;;;;;;-0.69;100.00;100032.55;1842630;77;20952;-76
2020/12/04 05:03:58;;;;;;;51.53;19.23;;;;;;;-0.69;100.00;100030.68;1843700;77;21531;-77
2020/12/04 05:06:36;;;;;;;54.45;19.55;;;;;;;-0.70;100.00;100026.34;1843459;77;21143;-77
2020/12/04 05:09:06;;;;;;;57.30;19.15;;;;;;;-0.70;100.00;100030.91;1841874;77;20972;-76
2020/12/04 05:11:34;;;;;;;52.75;19.62;;;;;;;-0.70;100.00;100031.73;1841801;78;21429;-77
2020/12/04 05:14:17;;;;;;;51.02;20.05;;;;;;;-0.69;100.00;100029.86;1841602;78;21015;-80
2020/12/04 05:16:45;;;;;;;52.30;20.50;;;;;;;-0.68;100.00;100027.45;1841696;78;20984;-75
2020/12/04 05:19:13;;;;;;;52.38;18.12;;;;;;;-0.69;100.00;100026.64;1841780;78;21561;-75
2020/12/04 05:21:42;;;;;;;56.28;18.45;;;;;;;-0.68;100.00;100025.58;1812821;78;21044;-77
2020/12/04 05:24:09;;;;;;;47.67;17.48;;;;;;;-0.65;100.00;100027.52;1812243;78;21834;-76
2020/12/04 05:26:37;;;;;;;53.02;17.35;;;;;;;-0.66;100.00;100028.05;1841610;78;20980;-78
2020/12/04 05:29:05;;;;;;;50.67;18.98;;;;;;;-0.67;100.00;100031.27;1825533;78;21003;-82
2020/12/04 05:31:35;;;;;;;57.58;17.75;;;;;;;-0.63;100.00;100030.81;1808741;79;20984;-83
2020/12/04 05:34:20;;;;;;;57.20;18.55;;;;;;;-0.63;100.00;100032.16;1808684;78;21051;-80
2020/12/04 05:36:50;;;;;;;48.68;18.17;;;;;;;-0.65;100.00;100043.70;1808879;79;21367;-81
2020/12/04 05:39:18;;;;;;;53.38;18.67;;;;;;;-0.65;100.00;100041.00;1808645;79;20940;-79
2020/12/04 05:41:49;;;;;;;51.18;18.37;;;;;;;-0.65;100.00;100053.14;1808607;79;21557;-77
2020/12/04 05:44:17;;;;;;;52.20;19.32;;;;;;;-0.65;100.00;100053.14;1779619;79;21095;-85
2020/12/04 05:46:53;;;;;;;47.58;17.20;;;;;;;-0.64;100.00;100059.65;1784283;79;21034;-82
2020/12/04 05:49:21;;;;;;;51.75;17.52;;;;;;;-0.63;100.00;100045.64;1807611;79;21389;-81
2020/12/04 05:51:52;;;;;;;46.70;17.87;;;;;;;-0.61;100.00;100048.41;1807133;78;20952;-83
2020/12/04 05:54:22;;;;;;;52.58;18.12;;;;;;;-0.60;100.00;100065.41;1807114;79;20932;-79
2020/12/04 05:56:51;;;;;;;47.45;18.52;;;;;;;-0.60;100.00;100066.23;1806967;79;21467;-76
2020/12/04 05:59:21;;;;;;;48.15;17.85;;;;;;;-0.59;100.00;100063.00;1806952;79;20928;-79
2020/12/04 06:01:49;;;;;;;51.37;18.70;;;;;;;-0.59;100.00;100067.87;1806924;79;21402;-83
2020/12/04 06:04:18;;;;;;;51.68;17.37;;;;;;;-0.57;100.00;100067.61;1806567;79;21495;-84
2020/12/04 06:06:46;;;;;;;47.00;17.70;;;;;;;-0.57;100.00;100068.95;1806372;79;20972;-86
2020/12/04 06:09:15;;;;;;;57.48;19.30;;;;;;;-0.56;100.00;100069.26;1806309;79;21003;-81
2020/12/04 06:11:46;;;;;;;52.00;18.05;;;;;;;-0.54;100.00;100081.45;1777544;79;21169;-81
2020/12/04 06:14:22;;;;;;;54.90;20.45;;;;;;;-0.53;100.00;100079.06;1806445;79;21530;-80
2020/12/04 06:17:09;;;;;;;52.43;18.60;;;;;;;-0.53;100.00;100081.75;1806350;79;20905;-81
2020/12/04 06:19:39;;;;;;;52.45;18.77;;;;;;;-0.52;100.00;100087.97;1806331;79;20883;-79
2020/12/04 06:22:17;;;;;;;63.10;21.27;;;;;;;-0.51;100.00;100089.62;1806335;79;20925;-82
2020/12/04 06:24:58;;;;;;;56.58;19.35;;;;;;;-0.51;100.00;100090.97;1806412;79;20984;-73
2020/12/04 06:27:44;;;;;;;49.58;18.80;;;;;;;-0.49;100.00;100090.21;1806519;79;21131;-75
2020/12/04 06:30:15;;;;;;;54.05;19.60;;;;;;;-0.48;100.00;100089.98;1806300;79;21004;-82
2020/12/04 06:32:50;;;;;;;51.88;19.57;;;;;;;-0.46;100.00;100094.62;1806676;79;21551;-82
2020/12/04 06:35:41;;;;;;;56.30;19.70;;;;;;;-0.45;100.00;100091.39;1806574;79;20925;-73
2020/12/04 06:38:40;;;;;;;50.73;18.17;;;;;;;-0.46;100.00;100090.57;1806533;79;21464;-86
2020/12/04 06:41:45;;;;;;;56.63;18.65;;;;;;;-0.45;100.00;100095.44;1728206;82;21560;-83
2020/12/04 06:44:22;;;;;;;67.37;21.45;;;;;;;-0.44;100.00;100091.69;1806323;79;21601;-81
2020/12/04 06:46:59;;;;;;;49.80;18.95;;;;;;;-0.46;100.00;100103.23;1806144;79;20940;-76
2020/12/04 06:49:39;;;;;;;56.73;21.30;;;;;;;-0.47;100.00;100098.89;1806460;79;20953;-80
2020/12/04 06:52:23;;;;;;;56.92;20.92;;;;;;;-0.46;100.00;100110.80;1806485;78;21122;-80
2020/12/04 06:54:51;;;;;;;66.28;21.90;;;;;;;-0.44;100.00;100106.52;1806641;79;21196;-82
2020/12/04 06:57:21;;;;;;;54.45;20.45;;;;;;;-0.42;100.00;100100.38;1806624;79;20932;-80
2020/12/04 06:59:48;;;;;;;63.30;22.22;;;;;;;-0.40;100.00;100102.31;1791925;79;21096;-83
2020/12/04 07:02:20;;;;;;;61.18;22.27;;;;;;;-0.39;100.00;100108.83;1796507;79;21579;-80
2020/12/04 07:04:51;;;;;;;62.45;21.75;;;;;;;-0.38;100.00;100106.43;1791680;79;21035;-78
2020/12/04 07:07:21;;;;;;;57.65;19.80;;;;;;;-0.37;100.00;100102.68;1786465;79;22263;-79
2020/12/04 07:09:57;;;;;;;58.95;22.17;;;;;;;-0.33;100.00;100101.69;1718310;82;20953;-75
2020/12/04 07:12:27;;;;;;;52.78;20.95;;;;;;;-0.32;100.00;100094.42;1697480;84;21036;-75
2020/12/04 07:14:58;;;;;;;55.48;19.90;;;;;;;-0.31;100.00;100099.58;1697743;84;21189;-79
2020/12/04 07:17:28;;;;;;;55.30;21.50;;;;;;;-0.30;100.00;100111.20;1697448;84;21008;-78
2020/12/04 07:19:57;;;;;;;59.18;22.00;;;;;;;-0.26;100.00;100119.13;1697414;84;21216;-76
2020/12/04 07:22:25;;;;;;;54.18;21.02;;;;;;;-0.25;100.00;100108.11;1697334;84;20968;-79
2020/12/04 07:24:54;;;;;;;56.75;20.20;;;;;;;-0.22;100.00;100108.17;1697482;84;21608;-82
2020/12/04 07:27:29;;;;;;;59.85;20.82;;;;;;;-0.21;100.00;100110.64;1697375;84;21081;-80
2020/12/04 07:29:56;;;;;;;61.08;21.12;;;;;;;-0.18;100.00;100103.95;1697460;84;21172;-78
2020/12/04 07:32:25;;;;;;;48.52;19.40;;;;;;;-0.18;100.00;100109.35;1697394;84;21387;-77
2020/12/04 07:34:53;;;;;;;54.50;20.70;;;;;;;-0.17;100.00;100107.77;1697400;84;21188;-76
2020/12/04 07:37:27;;;;;;;58.33;19.73;;;;;;;-0.15;100.00;100107.54;1697502;84;21087;-74
2020/12/04 07:39:55;;;;;;;56.18;21.40;;;;;;;-0.13;100.00;100106.25;1697550;84;21238;-75
2020/12/04 07:42:23;;;;;;;49.98;19.55;;;;;;;-0.13;100.00;100113.53;1697443;84;21194;-86
2020/12/04 07:44:52;;;;;;;52.17;19.75;;;;;;;-0.12;100.00;100121.92;1678627;84;21215;-78
2020/12/04 07:47:20;;;;;;;50.50;19.37;;;;;;;-0.12;100.00;100126.79;1697384;84;20964;-79
2020/12/04 07:49:53;;;;;;;52.15;19.48;;;;;;;-0.11;100.00;100120.34;1697709;84;20972;-81
2020/12/04 07:52:33;;;;;;;59.05;22.98;;;;;;;-0.09;100.00;100118.76;1697411;84;20948;-85
2020/12/04 07:55:03;;;;;;;55.03;21.73;;;;;;;-0.07;100.00;100120.17;1697480;84;20969;-83
2020/12/04 07:57:55;;;;;;;55.35;21.20;;;;;;;-0.06;100.00;100119.12;1697389;84;21388;-92
2020/12/04 08:00:23;;;;;;;59.25;20.55;;;;;;;-0.03;100.00;100119.18;1705210;84;21029;-78
2020/12/04 08:02:50;;;;;;;56.77;20.82;;;;;;;-0.01;100.00;100122.47;1705098;84;21039;-74
2020/12/04 08:05:20;;;;;;;59.27;22.00;;;;;;;0.04;100.00;100126.61;1705144;84;21085;-78
2020/12/04 08:07:52;;;;;;;56.65;22.22;;;;;;;0.06;100.00;100125.03;1705302;84;20908;-77
2020/12/04 08:10:20;;;;;;;62.58;22.13;;;;;;;0.08;100.00;100129.14;1705150;84;23674;-75
2020/12/04 08:12:50;;;;;;;58.65;21.55;;;;;;;0.10;100.00;100131.08;1705162;84;21110;-78
2020/12/04 08:15:19;;;;;;;58.33;22.52;;;;;;;0.11;100.00;100127.85;1705137;84;20980;-77
2020/12/04 08:17:46;;;;;;;61.58;22.67;;;;;;;0.12;100.00;100124.09;1705199;84;20959;-75
2020/12/04 08:20:17;;;;;;;65.78;21.93;;;;;;;0.12;100.00;100108.72;1705255;84;21169;-81
2020/12/04 08:22:49;;;;;;;58.68;21.85;;;;;;;0.14;100.00;100121.98;1705020;84;22979;-76
2020/12/04 08:25:25;;;;;;;58.80;21.20;;;;;;;0.15;100.00;100129.03;1705322;84;20924;-76
2020/12/04 08:27:53;;;;;;;66.92;23.65;;;;;;;0.16;100.00;100128.80;1705283;84;21612;-76
2020/12/04 08:30:28;;;;;;;61.80;21.52;;;;;;;0.18;100.00;100114.54;1705176;84;21417;-76
2020/12/04 08:33:03;;;;;;;65.62;23.00;;;;;;;0.17;100.00;100117.47;1705228;84;21020;-74
2020/12/04 08:35:39;;;;;;;67.67;23.70;;;;;;;0.16;100.00;100114.48;1685652;84;21112;-73
2020/12/04 08:38:16;;;;;;;67.08;22.82;;;;;;;0.19;100.00;100108.61;1705081;84;21027;-72
2020/12/04 08:40:46;;;;;;;67.62;24.00;;;;;;;0.21;100.00;100104.63;1705396;84;21173;-76
2020/12/04 08:43:24;;;;;;;72.75;24.95;;;;;;;0.22;100.00;100110.31;1685418;84;21007;-77
2020/12/04 08:45:54;;;;;;;72.00;24.63;;;;;;;0.21;100.00;100111.90;1705333;84;21075;-76
2020/12/04 08:48:26;;;;;;;62.20;21.68;;;;;;;0.20;100.00;100098.10;1705285;84;22058;-74
2020/12/04 08:50:57;;;;;;;70.62;24.60;;;;;;;0.20;100.00;100104.86;1705130;84;21091;-75
2020/12/04 08:53:24;;;;;;;62.93;23.40;;;;;;;0.20;100.00;100098.10;1704555;84;21067;-72
2020/12/04 08:55:55;;;;;;;75.08;24.82;;;;;;;0.21;100.00;100099.22;1705153;84;21042;-73
2020/12/04 08:58:25;;;;;;;67.17;22.87;;;;;;;0.27;100.00;100098.81;1715769;82;21565;-75
2020/12/04 09:00:54;;;;;;;65.47;22.32;;;;;;;0.28;100.00;100108.03;1749046;81;21213;-75
2020/12/04 09:03:25;;;;;;;61.88;21.52;;;;;;;0.30;100.00;100105.09;1743660;81;21580;-75
2020/12/04 09:05:55;;;;;;;64.95;22.15;;;;;;;0.31;100.00;100109.44;1744064;82;21000;-75
2020/12/04 09:08:23;;;;;;;59.35;22.65;;;;;;;0.30;100.00;100101.05;1734973;82;21577;-76
2020/12/04 09:10:51;;;;;;;70.62;25.23;;;;;;;0.29;100.00;100105.63;1741102;82;21042;-75
2020/12/04 09:13:19;;;;;;;75.15;25.45;;;;;;;0.29;100.00;100098.87;1748986;82;22760;-75
2020/12/04 09:15:48;;;;;;;71.75;23.12;;;;;;;0.33;100.00;100105.45;1744976;82;21657;-76
2020/12/04 09:18:18;;;;;;;65.92;21.52;;;;;;;0.33;100.00;100102.75;1739275;82;21113;-75
2020/12/04 09:20:46;;;;;;;60.15;22.40;;;;;;;0.35;100.00;100093.06;1725620;82;21562;-76
2020/12/04 09:23:14;;;;;;;54.60;21.70;;;;;;;0.40;100.00;100092.35;1757268;81;21129;-77
2020/12/04 09:25:43;;;;;;;66.15;23.47;;;;;;;0.42;100.00;100095.11;1708157;82;21538;-80
2020/12/04 09:28:12;;;;;;;62.48;23.00;;;;;;;0.44;100.00;100097.05;1696665;84;21625;-76
2020/12/04 09:30:40;;;;;;;46.02;19.17;;;;;;;0.45;100.00;100090.59;1702247;82;21018;-72
2020/12/04 09:33:07;;;;;;;52.85;19.17;;;;;;;0.44;100.00;100090.30;1758382;80;21458;-74
2020/12/04 09:35:37;;;;;;;50.80;18.52;;;;;;;0.47;100.00;100097.10;1748344;82;21115;-76
2020/12/04 09:38:05;;;;;;;47.03;17.32;;;;;;;0.51;100.00;100099.62;1756071;81;23524;-76
2020/12/04 09:40:33;;;;;;;46.25;18.12;;;;;;;0.53;100.00;100100.21;1756030;81;21060;-73
2020/12/04 09:43:00;;;;;;;44.73;17.60;;;;;;;0.52;100.00;100112.90;1741519;81;20981;-72
2020/12/04 09:45:29;;;;;;;41.55;16.50;;;;;;;0.51;100.00;100107.73;1732917;81;21155;-73
2020/12/04 09:48:00;;;;;;;37.25;15.35;;;;;;;0.53;100.00;100118.59;1731357;82;21115;-73
2020/12/04 09:50:28;;;;;;;33.88;14.43;;;;;;;0.55;100.00;100117.83;1734411;82;21199;-73
2020/12/04 09:52:56;;;;;;;35.38;14.90;;;;;;;0.56;100.00;100112.72;1744168;81;21578;-78
2020/12/04 09:55:26;;;;;;;32.85;13.15;;;;;;;0.54;100.00;100113.48;1734737;81;21206;-74
2020/12/04 09:57:54;;;;;;;42.27;16.05;;;;;;;0.56;100.00;100110.02;1733556;81;21123;-79
2020/12/04 10:00:22;;;;;;;38.78;15.60;;;;;;;0.56;100.00;100113.25;1740875;81;21179;-76
2020/12/04 10:02:50;;;;;;;38.75;15.20;;;;;;;0.52;100.00;100107.50;1729506;81;21208;-77
2020/12/04 10:05:18;;;;;;;38.55;14.70;;;;;;;0.50;100.00;100105.56;1733033;81;21182;-76
2020/12/04 10:07:46;;;;;;;35.35;15.98;;;;;;;0.50;100.00;100108.79;1732683;81;21123;-78
2020/12/04 10:10:14;;;;;;;40.95;16.32;;;;;;;0.49;100.00;100117.95;1729466;81;21143;-78
2020/12/04 10:12:42;;;;;;;34.83;14.58;;;;;;;0.47;100.00;100111.97;1732173;81;21127;-79
2020/12/04 10:15:10;;;;;;;33.30;15.00;;;;;;;0.48;100.00;100111.73;1734025;81;21211;-78
2020/12/04 10:17:38;;;;;;;38.30;15.43;;;;;;;0.50;100.00;100105.56;1724326;81;21098;-77
2020/12/04 10:20:06;;;;;;;32.48;13.43;;;;;;;0.50;100.00;100109.61;1731314;81;21563;-74
2020/12/04 10:22:35;;;;;;;42.27;15.90;;;;;;;0.51;100.00;100110.44;1733911;81;21111;-76
2020/12/04 10:25:03;;;;;;;32.48;14.53;;;;;;;0.52;100.00;100109.38;1731228;81;21147;-76
2020/12/04 10:27:32;;;;;;;30.37;13.50;;;;;;;0.51;100.00;100105.03;1729838;81;21159;-76
2020/12/04 10:29:59;;;;;;;30.12;12.82;;;;;;;0.50;100.00;100095.28;1722093;81;21503;-76
2020/12/04 10:32:28;;;;;;;34.35;12.75;;;;;;;0.49;100.00;100094.99;1711268;82;21092;-83
2020/12/04 10:34:57;;;;;;;33.20;13.48;;;;;;;0.47;100.00;100096.58;1710012;82;21246;-80
2020/12/04 10:37:25;;;;;;;29.02;14.28;;;;;;;0.48;100.00;100099.57;1712684;83;20988;-78
2020/12/04 10:39:53;;;;;;;33.90;13.50;;;;;;;0.47;100.00;100100.63;1714301;82;21190;-81
2020/12/04 10:42:20;;;;;;;31.02;13.75;;;;;;;0.49;100.00;100099.86;1713945;82;21065;-74
2020/12/04 10:44:48;;;;;;;26.48;12.37;;;;;;;0.53;100.00;100106.97;1713895;83;21512;-79
2020/12/04 10:47:15;;;;;;;29.65;12.60;;;;;;;0.56;100.00;100097.04;1713364;82;21039;-74
2020/12/04 10:49:44;;;;;;;32.65;13.43;;;;;;;0.60;100.00;100098.18;1713760;83;21158;-78
2020/12/04 10:52:12;;;;;;;30.77;13.13;;;;;;;0.62;100.00;100099.59;1711591;83;21234;-80
2020/12/04 10:54:40;;;;;;;28.05;11.60;;;;;;;0.63;100.00;100099.88;1684301;84;21502;-79
2020/12/04 10:57:08;;;;;;;26.40;12.10;;;;;;;0.64;100.00;100097.47;1705316;84;21106;-79
2020/12/04 10:59:37;;;;;;;29.90;11.95;;;;;;;0.64;100.00;100098.82;1705313;84;21594;-79
2020/12/04 11:02:17;;;;;;;26.80;12.15;;;;;;;0.64;100.00;100093.41;1703140;84;21110;-79
2020/12/04 11:07:25;;;;;;;29.07;12.10;;;;;;;0.65;100.00;100092.89;1705204;84;21712;-79
2020/12/04 11:09:54;;;;;;;28.47;12.73;;;;;;;0.65;100.00;100078.84;1704422;84;21145;-80
2020/12/04 11:12:21;;;;;;;29.50;13.10;;;;;;;0.68;100.00;100080.78;1705195;84;20947;-79
2020/12/04 11:14:49;;;;;;;32.03;13.55;;;;;;;0.68;100.00;100080.25;1705219;84;21463;-79
2020/12/04 11:17:17;;;;;;;34.15;14.98;;;;;;;0.68;100.00;100087.53;1705256;84;21520;-78
2020/12/04 11:19:46;;;;;;;32.10;13.62;;;;;;;0.65;100.00;100082.90;1705247;84;21601;-81
2020/12/04 11:22:14;;;;;;;32.05;13.32;;;;;;;0.64;100.00;100077.73;1705244;84;21145;-79